sensor_id;sensor_type;location;lat;lon;timestamp;P1;durP1;ratioP1;P2;durP2;ratioP2
11735;SDS011;5924;51.398;7.088;2023-04-04T00:01:55;1.50;;;1.50;;
11735;SDS011;5924;51.398;7.088;2023-04-04T00:04:22;2.40;;;2.10;;
11735;SDS011;5924;51.398;7.088;2023-04-04T00:06:48;8.40;;;2.30;;
11735;SDS011;5924;51.398;7.088;2023-04-04T00:09:14;1.90;;;1.90;;
11735;SDS011;5924;51.398;7.088;2023-04-04T00:11:39;2.93;;;2.17;;
11735;SDS011;5924;51.398;7.088;2023-04-04T00:14:06;1.53;;;1.53;;
11735;SDS011;5924;51.398;7.088;2023-04-04T00:16:32;2.37;;;2.30;;
11735;SDS011;5924;51.398;7.088;2023-04-04T00:18:58;2.93;;;2.00;;
11735;SDS011;5924;51.398;7.088;2023-04-04T00:21:24;2.87;;;2.40;;
11735;SDS011;5924;51.398;7.088;2023-04-04T00:23:52;4.97;;;2.07;;
11735;SDS011;5924;51.398;7.088;2023-04-04T00:26:18;2.77;;;2.03;;
11735;SDS011;5924;51.398;7.088;2023-04-04T00:28:45;1.97;;;1.87;;
11735;SDS011;5924;51.398;7.088;2023-04-04T00:31:11;2.30;;;2.20;;
11735;SDS011;5924;51.398;7.088;2023-04-04T00:33:37;2.20;;;2.10;;
11735;SDS011;5924;51.398;7.088;2023-04-04T00:36:02;2.57;;;2.37;;
11735;SDS011;5924;51.398;7.088;2023-04-04T00:38:28;1.30;;;1.30;;
11735;SDS011;5924;51.398;7.088;2023-04-04T00:40:54;1.90;;;1.90;;
11735;SDS011;5924;51.398;7.088;2023-04-04T00:43:20;2.17;;;2.03;;
11735;SDS011;5924;51.398;7.088;2023-04-04T00:45:47;1.90;;;1.80;;
11735;SDS011;5924;51.398;7.088;2023-04-04T00:48:14;1.93;;;1.93;;
11735;SDS011;5924;51.398;7.088;2023-04-04T00:50:40;2.33;;;2.13;;
11735;SDS011;5924;51.398;7.088;2023-04-04T00:53:05;2.30;;;2.13;;
11735;SDS011;5924;51.398;7.088;2023-04-04T00:55:31;2.13;;;2.03;;
11735;SDS011;5924;51.398;7.088;2023-04-04T00:57:58;3.07;;;1.97;;
11735;SDS011;5924;51.398;7.088;2023-04-04T01:00:24;2.93;;;2.63;;
11735;SDS011;5924;51.398;7.088;2023-04-04T01:02:50;2.37;;;2.27;;
11735;SDS011;5924;51.398;7.088;2023-04-04T01:05:17;2.33;;;2.13;;
11735;SDS011;5924;51.398;7.088;2023-04-04T01:07:42;2.63;;;2.53;;
11735;SDS011;5924;51.398;7.088;2023-04-04T01:10:08;3.90;;;2.60;;
11735;SDS011;5924;51.398;7.088;2023-04-04T01:12:35;2.87;;;2.77;;
11735;SDS011;5924;51.398;7.088;2023-04-04T01:15:01;2.80;;;2.60;;
11735;SDS011;5924;51.398;7.088;2023-04-04T01:17:26;3.23;;;2.50;;
11735;SDS011;5924;51.398;7.088;2023-04-04T01:22:32;2.43;;;2.23;;
11735;SDS011;5924;51.398;7.088;2023-04-04T01:24:59;2.50;;;2.30;;
11735;SDS011;5924;51.398;7.088;2023-04-04T01:27:28;3.37;;;2.80;;
11735;SDS011;5924;51.398;7.088;2023-04-04T01:29:54;2.17;;;2.17;;
11735;SDS011;5924;51.398;7.088;2023-04-04T01:32:22;2.40;;;2.30;;
11735;SDS011;5924;51.398;7.088;2023-04-04T01:35:01;2.30;;;2.10;;
11735;SDS011;5924;51.398;7.088;2023-04-04T01:37:34;3.93;;;3.73;;
11735;SDS011;5924;51.398;7.088;2023-04-04T01:40:20;5.23;;;2.40;;
11735;SDS011;5924;51.398;7.088;2023-04-04T01:42:49;2.80;;;2.60;;
11735;SDS011;5924;51.398;7.088;2023-04-04T01:45:15;2.77;;;2.53;;
11735;SDS011;5924;51.398;7.088;2023-04-04T01:47:42;2.50;;;2.40;;
11735;SDS011;5924;51.398;7.088;2023-04-04T01:50:08;2.57;;;2.50;;
11735;SDS011;5924;51.398;7.088;2023-04-04T01:52:35;2.70;;;2.50;;
11735;SDS011;5924;51.398;7.088;2023-04-04T01:55:01;3.10;;;2.77;;
11735;SDS011;5924;51.398;7.088;2023-04-04T01:57:28;2.60;;;2.40;;
11735;SDS011;5924;51.398;7.088;2023-04-04T01:59:54;3.53;;;2.47;;
11735;SDS011;5924;51.398;7.088;2023-04-04T02:02:20;2.77;;;2.70;;
11735;SDS011;5924;51.398;7.088;2023-04-04T02:04:46;2.30;;;2.27;;
11735;SDS011;5924;51.398;7.088;2023-04-04T02:07:12;3.10;;;2.70;;
11735;SDS011;5924;51.398;7.088;2023-04-04T02:09:38;2.30;;;2.20;;
11735;SDS011;5924;51.398;7.088;2023-04-04T02:12:04;2.83;;;2.63;;
11735;SDS011;5924;51.398;7.088;2023-04-04T02:14:30;2.40;;;2.30;;
11735;SDS011;5924;51.398;7.088;2023-04-04T02:16:56;2.30;;;2.20;;
11735;SDS011;5924;51.398;7.088;2023-04-04T02:19:21;2.23;;;2.13;;
11735;SDS011;5924;51.398;7.088;2023-04-04T02:21:48;2.40;;;2.30;;
11735;SDS011;5924;51.398;7.088;2023-04-04T02:24:14;2.60;;;2.50;;
11735;SDS011;5924;51.398;7.088;2023-04-04T02:26:40;3.00;;;2.80;;
11735;SDS011;5924;51.398;7.088;2023-04-04T02:29:05;2.57;;;2.47;;
11735;SDS011;5924;51.398;7.088;2023-04-04T02:31:31;3.53;;;3.20;;
11735;SDS011;5924;51.398;7.088;2023-04-04T02:33:57;4.10;;;2.40;;
11735;SDS011;5924;51.398;7.088;2023-04-04T02:36:23;2.27;;;2.27;;
11735;SDS011;5924;51.398;7.088;2023-04-04T02:38:49;2.57;;;2.33;;
11735;SDS011;5924;51.398;7.088;2023-04-04T02:41:15;2.73;;;2.53;;
11735;SDS011;5924;51.398;7.088;2023-04-04T02:43:40;3.00;;;2.77;;
11735;SDS011;5924;51.398;7.088;2023-04-04T02:46:06;2.37;;;2.27;;
11735;SDS011;5924;51.398;7.088;2023-04-04T02:48:32;3.27;;;3.10;;
11735;SDS011;5924;51.398;7.088;2023-04-04T02:50:58;3.50;;;2.47;;
11735;SDS011;5924;51.398;7.088;2023-04-04T02:53:24;2.90;;;2.80;;
11735;SDS011;5924;51.398;7.088;2023-04-04T02:55:50;4.00;;;3.03;;
11735;SDS011;5924;51.398;7.088;2023-04-04T02:58:15;3.87;;;3.40;;
11735;SDS011;5924;51.398;7.088;2023-04-04T03:00:41;3.50;;;3.30;;
11735;SDS011;5924;51.398;7.088;2023-04-04T03:03:07;3.00;;;2.80;;
11735;SDS011;5924;51.398;7.088;2023-04-04T03:05:33;3.50;;;3.30;;
11735;SDS011;5924;51.398;7.088;2023-04-04T03:07:58;2.90;;;2.70;;
11735;SDS011;5924;51.398;7.088;2023-04-04T03:10:25;3.43;;;2.43;;
11735;SDS011;5924;51.398;7.088;2023-04-04T03:12:55;5.30;;;3.10;;
11735;SDS011;5924;51.398;7.088;2023-04-04T03:15:21;2.97;;;2.77;;
11735;SDS011;5924;51.398;7.088;2023-04-04T03:17:47;5.37;;;3.27;;
11735;SDS011;5924;51.398;7.088;2023-04-04T03:20:13;3.37;;;3.13;;
11735;SDS011;5924;51.398;7.088;2023-04-04T03:22:40;3.10;;;3.00;;
11735;SDS011;5924;51.398;7.088;2023-04-04T03:25:07;2.43;;;2.33;;
11735;SDS011;5924;51.398;7.088;2023-04-04T03:27:33;2.93;;;2.83;;
11735;SDS011;5924;51.398;7.088;2023-04-04T03:29:58;3.07;;;2.87;;
11735;SDS011;5924;51.398;7.088;2023-04-04T03:32:25;3.30;;;3.03;;
11735;SDS011;5924;51.398;7.088;2023-04-04T03:34:51;2.87;;;2.63;;
11735;SDS011;5924;51.398;7.088;2023-04-04T03:37:17;3.50;;;3.20;;
11735;SDS011;5924;51.398;7.088;2023-04-04T03:39:42;11.57;;;3.70;;
11735;SDS011;5924;51.398;7.088;2023-04-04T03:42:08;6.40;;;3.50;;
11735;SDS011;5924;51.398;7.088;2023-04-04T03:44:34;4.50;;;3.20;;
11735;SDS011;5924;51.398;7.088;2023-04-04T03:47:01;2.93;;;2.83;;
11735;SDS011;5924;51.398;7.088;2023-04-04T03:49:27;4.23;;;2.87;;
11735;SDS011;5924;51.398;7.088;2023-04-04T03:51:53;3.90;;;3.60;;
11735;SDS011;5924;51.398;7.088;2023-04-04T03:54:19;3.20;;;3.07;;
11735;SDS011;5924;51.398;7.088;2023-04-04T03:56:45;6.10;;;3.27;;
11735;SDS011;5924;51.398;7.088;2023-04-04T03:59:10;7.50;;;3.07;;
11735;SDS011;5924;51.398;7.088;2023-04-04T04:01:36;3.87;;;3.10;;
11735;SDS011;5924;51.398;7.088;2023-04-04T04:04:02;3.03;;;2.93;;
11735;SDS011;5924;51.398;7.088;2023-04-04T04:06:28;2.80;;;2.70;;
11735;SDS011;5924;51.398;7.088;2023-04-04T04:08:53;3.10;;;3.00;;
11735;SDS011;5924;51.398;7.088;2023-04-04T04:11:20;3.67;;;3.40;;
11735;SDS011;5924;51.398;7.088;2023-04-04T04:13:46;3.50;;;3.20;;
11735;SDS011;5924;51.398;7.088;2023-04-04T04:16:11;5.90;;;4.17;;
11735;SDS011;5924;51.398;7.088;2023-04-04T04:18:37;4.30;;;3.90;;
11735;SDS011;5924;51.398;7.088;2023-04-04T04:21:03;5.90;;;3.70;;
11735;SDS011;5924;51.398;7.088;2023-04-04T04:23:29;7.10;;;4.07;;
11735;SDS011;5924;51.398;7.088;2023-04-04T04:25:55;3.57;;;3.23;;
11735;SDS011;5924;51.398;7.088;2023-04-04T04:28:21;3.70;;;3.50;;
11735;SDS011;5924;51.398;7.088;2023-04-04T04:30:50;3.87;;;3.67;;
11735;SDS011;5924;51.398;7.088;2023-04-04T04:33:16;8.27;;;3.13;;
11735;SDS011;5924;51.398;7.088;2023-04-04T04:35:42;3.77;;;3.57;;
11735;SDS011;5924;51.398;7.088;2023-04-04T04:38:08;3.50;;;3.27;;
11735;SDS011;5924;51.398;7.088;2023-04-04T04:40:34;5.30;;;3.67;;
11735;SDS011;5924;51.398;7.088;2023-04-04T04:43:00;4.73;;;3.90;;
11735;SDS011;5924;51.398;7.088;2023-04-04T04:45:26;3.40;;;3.07;;
11735;SDS011;5924;51.398;7.088;2023-04-04T04:47:52;3.37;;;3.17;;
11735;SDS011;5924;51.398;7.088;2023-04-04T04:50:18;10.13;;;4.73;;
11735;SDS011;5924;51.398;7.088;2023-04-04T04:52:44;5.00;;;3.13;;
11735;SDS011;5924;51.398;7.088;2023-04-04T04:55:09;6.17;;;3.27;;
11735;SDS011;5924;51.398;7.088;2023-04-04T04:57:36;3.23;;;3.13;;
11735;SDS011;5924;51.398;7.088;2023-04-04T05:00:02;3.50;;;3.20;;
11735;SDS011;5924;51.398;7.088;2023-04-04T05:02:29;3.30;;;3.10;;
11735;SDS011;5924;51.398;7.088;2023-04-04T05:04:55;4.23;;;3.53;;
11735;SDS011;5924;51.398;7.088;2023-04-04T05:07:21;3.70;;;3.50;;
11735;SDS011;5924;51.398;7.088;2023-04-04T05:09:47;3.40;;;3.20;;
11735;SDS011;5924;51.398;7.088;2023-04-04T05:12:14;4.63;;;4.43;;
11735;SDS011;5924;51.398;7.088;2023-04-04T05:14:40;5.10;;;4.60;;
11735;SDS011;5924;51.398;7.088;2023-04-04T05:17:05;7.80;;;5.17;;
11735;SDS011;5924;51.398;7.088;2023-04-04T05:19:31;5.33;;;3.93;;
11735;SDS011;5924;51.398;7.088;2023-04-04T05:21:56;6.83;;;4.90;;
11735;SDS011;5924;51.398;7.088;2023-04-04T05:24:22;4.77;;;3.60;;
11735;SDS011;5924;51.398;7.088;2023-04-04T05:26:48;4.77;;;4.47;;
11735;SDS011;5924;51.398;7.088;2023-04-04T05:29:13;3.73;;;3.63;;
11735;SDS011;5924;51.398;7.088;2023-04-04T05:31:39;7.33;;;3.90;;
11735;SDS011;5924;51.398;7.088;2023-04-04T05:34:05;4.53;;;4.13;;
11735;SDS011;5924;51.398;7.088;2023-04-04T05:36:34;4.60;;;4.10;;
11735;SDS011;5924;51.398;7.088;2023-04-04T05:39:00;3.80;;;3.60;;
11735;SDS011;5924;51.398;7.088;2023-04-04T05:41:28;3.90;;;3.70;;
11735;SDS011;5924;51.398;7.088;2023-04-04T05:43:54;4.63;;;4.30;;
11735;SDS011;5924;51.398;7.088;2023-04-04T05:46:20;4.17;;;3.77;;
11735;SDS011;5924;51.398;7.088;2023-04-04T05:48:46;4.20;;;3.90;;
11735;SDS011;5924;51.398;7.088;2023-04-04T05:51:14;6.00;;;5.50;;
11735;SDS011;5924;51.398;7.088;2023-04-04T05:53:40;5.90;;;5.30;;
11735;SDS011;5924;51.398;7.088;2023-04-04T05:56:06;5.20;;;4.80;;
11735;SDS011;5924;51.398;7.088;2023-04-04T05:58:31;7.20;;;4.70;;
11735;SDS011;5924;51.398;7.088;2023-04-04T06:00:57;7.17;;;5.60;;
11735;SDS011;5924;51.398;7.088;2023-04-04T06:03:23;4.93;;;4.53;;
11735;SDS011;5924;51.398;7.088;2023-04-04T06:05:49;4.97;;;4.47;;
11735;SDS011;5924;51.398;7.088;2023-04-04T06:08:16;5.07;;;4.67;;
11735;SDS011;5924;51.398;7.088;2023-04-04T06:10:42;4.23;;;4.03;;
11735;SDS011;5924;51.398;7.088;2023-04-04T06:13:07;5.37;;;4.90;;
11735;SDS011;5924;51.398;7.088;2023-04-04T06:15:33;5.43;;;4.90;;
11735;SDS011;5924;51.398;7.088;2023-04-04T06:17:59;7.87;;;5.17;;
11735;SDS011;5924;51.398;7.088;2023-04-04T06:20:25;5.57;;;5.17;;
11735;SDS011;5924;51.398;7.088;2023-04-04T06:22:51;11.23;;;5.00;;
11735;SDS011;5924;51.398;7.088;2023-04-04T06:25:17;5.30;;;4.90;;
11735;SDS011;5924;51.398;7.088;2023-04-04T06:27:42;4.93;;;4.63;;
11735;SDS011;5924;51.398;7.088;2023-04-04T06:30:08;5.20;;;4.70;;
11735;SDS011;5924;51.398;7.088;2023-04-04T06:32:35;9.73;;;5.93;;
11735;SDS011;5924;51.398;7.088;2023-04-04T06:35:00;5.50;;;5.10;;
11735;SDS011;5924;51.398;7.088;2023-04-04T06:37:26;7.50;;;5.13;;
11735;SDS011;5924;51.398;7.088;2023-04-04T06:39:52;5.47;;;5.07;;
11735;SDS011;5924;51.398;7.088;2023-04-04T06:42:18;5.20;;;4.80;;
11735;SDS011;5924;51.398;7.088;2023-04-04T06:44:43;5.80;;;5.40;;
11735;SDS011;5924;51.398;7.088;2023-04-04T06:47:09;6.30;;;5.50;;
11735;SDS011;5924;51.398;7.088;2023-04-04T06:49:35;4.97;;;4.70;;
11735;SDS011;5924;51.398;7.088;2023-04-04T06:52:01;5.60;;;5.00;;
11735;SDS011;5924;51.398;7.088;2023-04-04T06:54:28;5.30;;;5.00;;
11735;SDS011;5924;51.398;7.088;2023-04-04T06:56:54;7.20;;;5.53;;
11735;SDS011;5924;51.398;7.088;2023-04-04T06:59:19;5.20;;;4.80;;
11735;SDS011;5924;51.398;7.088;2023-04-04T07:01:45;5.07;;;4.77;;
11735;SDS011;5924;51.398;7.088;2023-04-04T07:04:11;5.70;;;5.30;;
11735;SDS011;5924;51.398;7.088;2023-04-04T07:06:36;5.97;;;5.37;;
11735;SDS011;5924;51.398;7.088;2023-04-04T07:09:02;7.30;;;6.50;;
11735;SDS011;5924;51.398;7.088;2023-04-04T07:11:28;5.83;;;5.27;;
11735;SDS011;5924;51.398;7.088;2023-04-04T07:13:54;6.30;;;5.70;;
11735;SDS011;5924;51.398;7.088;2023-04-04T07:16:20;6.00;;;5.60;;
11735;SDS011;5924;51.398;7.088;2023-04-04T07:18:46;6.40;;;5.87;;
11735;SDS011;5924;51.398;7.088;2023-04-04T07:21:12;12.10;;;6.63;;
11735;SDS011;5924;51.398;7.088;2023-04-04T07:23:37;7.00;;;6.30;;
11735;SDS011;5924;51.398;7.088;2023-04-04T07:26:03;6.73;;;5.50;;
11735;SDS011;5924;51.398;7.088;2023-04-04T07:28:29;6.90;;;5.17;;
11735;SDS011;5924;51.398;7.088;2023-04-04T07:30:59;7.43;;;5.67;;
11735;SDS011;5924;51.398;7.088;2023-04-04T07:33:26;8.27;;;6.43;;
11735;SDS011;5924;51.398;7.088;2023-04-04T07:35:52;7.63;;;6.80;;
11735;SDS011;5924;51.398;7.088;2023-04-04T07:38:18;7.90;;;6.20;;
11735;SDS011;5924;51.398;7.088;2023-04-04T07:40:43;8.00;;;6.37;;
11735;SDS011;5924;51.398;7.088;2023-04-04T07:43:09;8.40;;;7.03;;
11735;SDS011;5924;51.398;7.088;2023-04-04T07:45:35;7.67;;;6.97;;
11735;SDS011;5924;51.398;7.088;2023-04-04T07:48:01;7.13;;;6.40;;
11735;SDS011;5924;51.398;7.088;2023-04-04T07:50:26;9.40;;;6.20;;
11735;SDS011;5924;51.398;7.088;2023-04-04T07:52:52;9.80;;;7.40;;
11735;SDS011;5924;51.398;7.088;2023-04-04T07:55:22;5.40;;;4.90;;
11735;SDS011;5924;51.398;7.088;2023-04-04T07:57:51;7.13;;;4.60;;
11735;SDS011;5924;51.398;7.088;2023-04-04T08:00:18;6.83;;;4.77;;
11735;SDS011;5924;51.398;7.088;2023-04-04T08:02:55;3.57;;;3.27;;
11735;SDS011;5924;51.398;7.088;2023-04-04T08:05:23;12.57;;;4.20;;
11735;SDS011;5924;51.398;7.088;2023-04-04T08:07:49;5.30;;;2.87;;
11735;SDS011;5924;51.398;7.088;2023-04-04T08:10:15;3.27;;;2.97;;
11735;SDS011;5924;51.398;7.088;2023-04-04T08:12:41;2.90;;;2.70;;
11735;SDS011;5924;51.398;7.088;2023-04-04T08:15:08;4.10;;;3.60;;
11735;SDS011;5924;51.398;7.088;2023-04-04T08:17:35;3.57;;;2.33;;
11735;SDS011;5924;51.398;7.088;2023-04-04T08:20:01;4.87;;;2.83;;
11735;SDS011;5924;51.398;7.088;2023-04-04T08:22:28;2.60;;;2.40;;
11735;SDS011;5924;51.398;7.088;2023-04-04T08:24:53;2.07;;;1.97;;
11735;SDS011;5924;51.398;7.088;2023-04-04T08:27:19;3.40;;;2.03;;
11735;SDS011;5924;51.398;7.088;2023-04-04T08:29:45;4.00;;;1.73;;
11735;SDS011;5924;51.398;7.088;2023-04-04T08:32:12;3.67;;;2.40;;
11735;SDS011;5924;51.398;7.088;2023-04-04T08:34:38;2.03;;;1.93;;
11735;SDS011;5924;51.398;7.088;2023-04-04T08:37:05;4.20;;;2.50;;
11735;SDS011;5924;51.398;7.088;2023-04-04T08:39:31;2.53;;;1.80;;
11735;SDS011;5924;51.398;7.088;2023-04-04T08:42:01;1.67;;;1.57;;
11735;SDS011;5924;51.398;7.088;2023-04-04T08:44:31;1.50;;;1.50;;
11735;SDS011;5924;51.398;7.088;2023-04-04T08:47:01;3.77;;;2.13;;
11735;SDS011;5924;51.398;7.088;2023-04-04T08:49:30;2.30;;;2.20;;
11735;SDS011;5924;51.398;7.088;2023-04-04T08:52:00;1.87;;;1.87;;
11735;SDS011;5924;51.398;7.088;2023-04-04T08:54:27;2.13;;;2.00;;
11735;SDS011;5924;51.398;7.088;2023-04-04T08:56:55;1.90;;;1.90;;
11735;SDS011;5924;51.398;7.088;2023-04-04T08:59:22;1.70;;;1.70;;
11735;SDS011;5924;51.398;7.088;2023-04-04T09:01:47;3.23;;;2.07;;
11735;SDS011;5924;51.398;7.088;2023-04-04T09:04:16;2.30;;;2.00;;
11735;SDS011;5924;51.398;7.088;2023-04-04T09:06:43;3.13;;;2.03;;
11735;SDS011;5924;51.398;7.088;2023-04-04T09:09:09;2.87;;;2.13;;
11735;SDS011;5924;51.398;7.088;2023-04-04T09:11:36;2.73;;;2.10;;
11735;SDS011;5924;51.398;7.088;2023-04-04T09:14:04;1.80;;;1.80;;
11735;SDS011;5924;51.398;7.088;2023-04-04T09:16:30;3.20;;;2.77;;
11735;SDS011;5924;51.398;7.088;2023-04-04T09:18:55;5.07;;;2.20;;
11735;SDS011;5924;51.398;7.088;2023-04-04T09:21:21;2.30;;;2.20;;
11735;SDS011;5924;51.398;7.088;2023-04-04T09:23:47;2.73;;;1.83;;
11735;SDS011;5924;51.398;7.088;2023-04-04T09:26:23;3.87;;;2.30;;
11735;SDS011;5924;51.398;7.088;2023-04-04T09:28:51;3.50;;;2.23;;
11735;SDS011;5924;51.398;7.088;2023-04-04T09:31:17;3.07;;;1.60;;
11735;SDS011;5924;51.398;7.088;2023-04-04T09:33:43;3.30;;;2.07;;
11735;SDS011;5924;51.398;7.088;2023-04-04T09:36:12;5.27;;;1.77;;
11735;SDS011;5924;51.398;7.088;2023-04-04T09:38:38;2.00;;;1.90;;
11735;SDS011;5924;51.398;7.088;2023-04-04T09:41:07;3.60;;;2.37;;
11735;SDS011;5924;51.398;7.088;2023-04-04T09:43:34;1.73;;;1.70;;
11735;SDS011;5924;51.398;7.088;2023-04-04T09:46:01;3.03;;;2.20;;
11735;SDS011;5924;51.398;7.088;2023-04-04T09:48:32;2.20;;;2.10;;
11735;SDS011;5924;51.398;7.088;2023-04-04T09:50:58;2.40;;;2.00;;
11735;SDS011;5924;51.398;7.088;2023-04-04T09:53:25;6.40;;;2.77;;
11735;SDS011;5924;51.398;7.088;2023-04-04T09:55:52;2.57;;;2.33;;
11735;SDS011;5924;51.398;7.088;2023-04-04T09:58:25;2.83;;;2.50;;
11735;SDS011;5924;51.398;7.088;2023-04-04T10:00:53;2.80;;;2.57;;
11735;SDS011;5924;51.398;7.088;2023-04-04T10:03:21;3.03;;;2.30;;
11735;SDS011;5924;51.398;7.088;2023-04-04T10:05:53;5.20;;;2.53;;
11735;SDS011;5924;51.398;7.088;2023-04-04T10:08:21;2.57;;;2.47;;
11735;SDS011;5924;51.398;7.088;2023-04-04T10:10:51;2.60;;;2.07;;
11735;SDS011;5924;51.398;7.088;2023-04-04T10:13:27;5.13;;;2.47;;
11735;SDS011;5924;51.398;7.088;2023-04-04T10:15:54;2.50;;;2.30;;
11735;SDS011;5924;51.398;7.088;2023-04-04T10:18:25;2.83;;;2.57;;
11735;SDS011;5924;51.398;7.088;2023-04-04T10:20:52;6.03;;;2.23;;
11735;SDS011;5924;51.398;7.088;2023-04-04T10:23:20;2.23;;;2.03;;
11735;SDS011;5924;51.398;7.088;2023-04-04T10:25:49;2.33;;;2.23;;
11735;SDS011;5924;51.398;7.088;2023-04-04T10:28:16;2.30;;;1.90;;
11735;SDS011;5924;51.398;7.088;2023-04-04T10:30:43;2.53;;;2.13;;
11735;SDS011;5924;51.398;7.088;2023-04-04T10:33:26;2.27;;;1.97;;
11735;SDS011;5924;51.398;7.088;2023-04-04T10:36:14;2.17;;;2.07;;
11735;SDS011;5924;51.398;7.088;2023-04-04T10:38:51;2.43;;;2.37;;
11735;SDS011;5924;51.398;7.088;2023-04-04T10:41:24;1.97;;;1.87;;
11735;SDS011;5924;51.398;7.088;2023-04-04T10:43:51;8.10;;;2.10;;
11735;SDS011;5924;51.398;7.088;2023-04-04T10:46:22;5.40;;;2.30;;
11735;SDS011;5924;51.398;7.088;2023-04-04T10:48:54;1.90;;;1.90;;
11735;SDS011;5924;51.398;7.088;2023-04-04T10:51:22;3.73;;;2.17;;
11735;SDS011;5924;51.398;7.088;2023-04-04T10:53:47;2.87;;;2.57;;
11735;SDS011;5924;51.398;7.088;2023-04-04T10:56:14;2.20;;;1.97;;
11735;SDS011;5924;51.398;7.088;2023-04-04T10:58:41;2.50;;;2.30;;
11735;SDS011;5924;51.398;7.088;2023-04-04T11:01:08;2.33;;;2.23;;
11735;SDS011;5924;51.398;7.088;2023-04-04T11:07:15;3.50;;;2.20;;
11735;SDS011;5924;51.398;7.088;2023-04-04T11:12:20;3.80;;;2.17;;
11735;SDS011;5924;51.398;7.088;2023-04-04T11:14:53;3.03;;;2.00;;
11735;SDS011;5924;51.398;7.088;2023-04-04T11:20:17;2.37;;;2.17;;
11735;SDS011;5924;51.398;7.088;2023-04-04T11:23:00;9.20;;;2.37;;
11735;SDS011;5924;51.398;7.088;2023-04-04T11:27:57;1.80;;;1.57;;
11735;SDS011;5924;51.398;7.088;2023-04-04T11:30:25;1.87;;;1.83;;
11735;SDS011;5924;51.398;7.088;2023-04-04T11:32:58;2.47;;;2.27;;
11735;SDS011;5924;51.398;7.088;2023-04-04T11:35:24;3.13;;;2.50;;
11735;SDS011;5924;51.398;7.088;2023-04-04T11:40:27;2.23;;;2.07;;
11735;SDS011;5924;51.398;7.088;2023-04-04T11:43:16;3.23;;;3.03;;
11735;SDS011;5924;51.398;7.088;2023-04-04T11:45:44;2.33;;;2.13;;
11735;SDS011;5924;51.398;7.088;2023-04-04T11:48:11;2.40;;;2.20;;
11735;SDS011;5924;51.398;7.088;2023-04-04T11:50:40;2.27;;;2.27;;
11735;SDS011;5924;51.398;7.088;2023-04-04T11:53:09;2.60;;;2.40;;
11735;SDS011;5924;51.398;7.088;2023-04-04T11:55:43;2.53;;;1.83;;
11735;SDS011;5924;51.398;7.088;2023-04-04T11:58:13;4.40;;;2.63;;
11735;SDS011;5924;51.398;7.088;2023-04-04T12:00:40;2.40;;;2.30;;
11735;SDS011;5924;51.398;7.088;2023-04-04T12:03:09;1.73;;;1.73;;
11735;SDS011;5924;51.398;7.088;2023-04-04T12:05:36;6.13;;;2.03;;
11735;SDS011;5924;51.398;7.088;2023-04-04T12:08:04;1.70;;;1.60;;
11735;SDS011;5924;51.398;7.088;2023-04-04T12:10:34;2.00;;;1.80;;
11735;SDS011;5924;51.398;7.088;2023-04-04T12:13:04;2.67;;;2.03;;
11735;SDS011;5924;51.398;7.088;2023-04-04T12:15:32;2.53;;;2.33;;
11735;SDS011;5924;51.398;7.088;2023-04-04T12:17:58;2.50;;;2.40;;
11735;SDS011;5924;51.398;7.088;2023-04-04T12:20:24;2.00;;;1.90;;
11735;SDS011;5924;51.398;7.088;2023-04-04T12:22:51;2.03;;;1.93;;
11735;SDS011;5924;51.398;7.088;2023-04-04T12:25:18;2.77;;;1.83;;
11735;SDS011;5924;51.398;7.088;2023-04-04T12:27:46;1.87;;;1.77;;
11735;SDS011;5924;51.398;7.088;2023-04-04T12:30:12;2.53;;;2.40;;
11735;SDS011;5924;51.398;7.088;2023-04-04T12:32:49;2.00;;;1.90;;
11735;SDS011;5924;51.398;7.088;2023-04-04T12:35:15;2.70;;;1.97;;
11735;SDS011;5924;51.398;7.088;2023-04-04T12:40:40;2.20;;;2.07;;
11735;SDS011;5924;51.398;7.088;2023-04-04T12:43:06;2.13;;;1.93;;
11735;SDS011;5924;51.398;7.088;2023-04-04T12:45:36;2.17;;;2.07;;
11735;SDS011;5924;51.398;7.088;2023-04-04T12:48:07;5.27;;;2.10;;
11735;SDS011;5924;51.398;7.088;2023-04-04T12:50:47;2.70;;;2.50;;
11735;SDS011;5924;51.398;7.088;2023-04-04T12:53:15;3.33;;;2.10;;
11735;SDS011;5924;51.398;7.088;2023-04-04T12:55:44;2.17;;;2.07;;
11735;SDS011;5924;51.398;7.088;2023-04-04T12:58:11;2.30;;;2.20;;
11735;SDS011;5924;51.398;7.088;2023-04-04T13:00:41;2.60;;;2.50;;
11735;SDS011;5924;51.398;7.088;2023-04-04T13:03:08;2.03;;;1.93;;
11735;SDS011;5924;51.398;7.088;2023-04-04T13:05:34;3.53;;;3.23;;
11735;SDS011;5924;51.398;7.088;2023-04-04T13:08:04;3.63;;;3.43;;
11735;SDS011;5924;51.398;7.088;2023-04-04T13:10:53;3.07;;;2.80;;
11735;SDS011;5924;51.398;7.088;2023-04-04T13:15:55;3.07;;;2.97;;
11735;SDS011;5924;51.398;7.088;2023-04-04T13:18:22;2.10;;;2.00;;
11735;SDS011;5924;51.398;7.088;2023-04-04T13:20:52;3.60;;;3.30;;
11735;SDS011;5924;51.398;7.088;2023-04-04T13:23:19;3.43;;;3.03;;
11735;SDS011;5924;51.398;7.088;2023-04-04T13:25:46;2.80;;;2.60;;
11735;SDS011;5924;51.398;7.088;2023-04-04T13:28:12;3.13;;;2.93;;
11735;SDS011;5924;51.398;7.088;2023-04-04T13:30:38;3.03;;;2.80;;
11735;SDS011;5924;51.398;7.088;2023-04-04T13:33:07;2.43;;;2.33;;
11735;SDS011;5924;51.398;7.088;2023-04-04T13:35:33;2.73;;;2.50;;
11735;SDS011;5924;51.398;7.088;2023-04-04T13:37:59;2.63;;;2.33;;
11735;SDS011;5924;51.398;7.088;2023-04-04T13:40:25;8.63;;;3.10;;
11735;SDS011;5924;51.398;7.088;2023-04-04T13:42:51;3.10;;;2.80;;
11735;SDS011;5924;51.398;7.088;2023-04-04T13:45:17;2.70;;;2.60;;
11735;SDS011;5924;51.398;7.088;2023-04-04T13:47:44;2.67;;;2.53;;
11735;SDS011;5924;51.398;7.088;2023-04-04T13:50:10;6.17;;;2.40;;
11735;SDS011;5924;51.398;7.088;2023-04-04T13:52:35;2.40;;;2.30;;
11735;SDS011;5924;51.398;7.088;2023-04-04T13:55:02;2.77;;;2.40;;
11735;SDS011;5924;51.398;7.088;2023-04-04T13:57:29;3.07;;;2.87;;
11735;SDS011;5924;51.398;7.088;2023-04-04T13:59:54;3.10;;;2.90;;
11735;SDS011;5924;51.398;7.088;2023-04-04T14:02:20;3.27;;;2.93;;
11735;SDS011;5924;51.398;7.088;2023-04-04T14:04:46;3.00;;;2.80;;
11735;SDS011;5924;51.398;7.088;2023-04-04T14:07:12;3.77;;;2.17;;
11735;SDS011;5924;51.398;7.088;2023-04-04T14:09:37;2.90;;;2.70;;
11735;SDS011;5924;51.398;7.088;2023-04-04T14:12:03;3.17;;;2.97;;
11735;SDS011;5924;51.398;7.088;2023-04-04T14:14:29;2.70;;;2.60;;
11735;SDS011;5924;51.398;7.088;2023-04-04T14:16:55;3.10;;;3.00;;
11735;SDS011;5924;51.398;7.088;2023-04-04T14:19:20;2.67;;;2.57;;
11735;SDS011;5924;51.398;7.088;2023-04-04T14:21:49;2.97;;;2.77;;
11735;SDS011;5924;51.398;7.088;2023-04-04T14:24:15;3.43;;;2.70;;
11735;SDS011;5924;51.398;7.088;2023-04-04T14:26:41;2.70;;;2.60;;
11735;SDS011;5924;51.398;7.088;2023-04-04T14:29:07;5.50;;;2.57;;
11735;SDS011;5924;51.398;7.088;2023-04-04T14:31:32;6.40;;;2.97;;
11735;SDS011;5924;51.398;7.088;2023-04-04T14:34:02;3.53;;;3.23;;
11735;SDS011;5924;51.398;7.088;2023-04-04T14:36:28;3.70;;;3.40;;
11735;SDS011;5924;51.398;7.088;2023-04-04T14:38:54;3.27;;;3.17;;
11735;SDS011;5924;51.398;7.088;2023-04-04T14:41:20;3.93;;;3.53;;
11735;SDS011;5924;51.398;7.088;2023-04-04T14:43:46;3.57;;;3.33;;
11735;SDS011;5924;51.398;7.088;2023-04-04T14:46:11;2.70;;;2.60;;
11735;SDS011;5924;51.398;7.088;2023-04-04T14:48:37;3.17;;;2.97;;
11735;SDS011;5924;51.398;7.088;2023-04-04T14:51:03;8.63;;;3.20;;
11735;SDS011;5924;51.398;7.088;2023-04-04T14:53:29;7.90;;;2.90;;
11735;SDS011;5924;51.398;7.088;2023-04-04T14:55:55;7.10;;;3.33;;
11735;SDS011;5924;51.398;7.088;2023-04-04T14:58:21;2.73;;;2.63;;
11735;SDS011;5924;51.398;7.088;2023-04-04T15:00:47;2.83;;;2.53;;
11735;SDS011;5924;51.398;7.088;2023-04-04T15:03:13;5.27;;;2.80;;
11735;SDS011;5924;51.398;7.088;2023-04-04T15:05:40;3.10;;;2.90;;
11735;SDS011;5924;51.398;7.088;2023-04-04T15:08:06;3.23;;;2.93;;
11735;SDS011;5924;51.398;7.088;2023-04-04T15:10:32;2.83;;;2.70;;
11735;SDS011;5924;51.398;7.088;2023-04-04T15:12:58;3.10;;;3.00;;
11735;SDS011;5924;51.398;7.088;2023-04-04T15:15:24;3.47;;;2.70;;
11735;SDS011;5924;51.398;7.088;2023-04-04T15:17:50;3.67;;;3.50;;
11735;SDS011;5924;51.398;7.088;2023-04-04T15:20:16;3.00;;;2.80;;
11735;SDS011;5924;51.398;7.088;2023-04-04T15:22:41;3.10;;;2.80;;